sensor_id;sensor_type;location;lat;lon;timestamp;pressure;altitude;pressure_sealevel;temperature;humidity
73063;BME280;61230;46.328;19.972;2022-09-01T00:00:01;100408.06;;;19.75;50.70
73063;BME280;61230;46.328;19.972;2022-09-01T00:02:32;100394.94;;;19.74;50.66
73063;BME280;61230;46.328;19.972;2022-09-01T00:05:00;100400.44;;;19.66;50.88
73063;BME280;61230;46.328;19.972;2022-09-01T00:07:30;100387.50;;;19.63;50.87
73063;BME280;61230;46.328;19.972;2022-09-01T00:09:59;100374.34;;;19.55;51.09
73063;BME280;61230;46.328;19.972;2022-09-01T00:12:27;100383.75;;;19.50;51.15
73063;BME280;61230;46.328;19.972;2022-09-01T00:14:55;100388.03;;;19.45;51.08
73063;BME280;61230;46.328;19.972;2022-09-01T00:17:23;100388.66;;;19.47;51.19
73063;BME280;61230;46.328;19.972;2022-09-01T00:19:52;100380.63;;;19.40;51.35
73063;BME280;61230;46.328;19.972;2022-09-01T00:22:19;100386.16;;;19.39;51.53
73063;BME280;61230;46.328;19.972;2022-09-01T00:24:47;100384.91;;;19.35;51.48
73063;BME280;61230;46.328;19.972;2022-09-01T00:27:15;100376.03;;;19.28;51.41
73063;BME280;61230;46.328;19.972;2022-09-01T00:29:44;100374.56;;;19.25;51.71
73063;BME280;61230;46.328;19.972;2022-09-01T00:32:12;100374.12;;;19.22;51.63
73063;BME280;61230;46.328;19.972;2022-09-01T00:34:40;100384.41;;;19.25;51.69
73063;BME280;61230;46.328;19.972;2022-09-01T00:37:08;100382.97;;;19.22;51.82
73063;BME280;61230;46.328;19.972;2022-09-01T00:39:35;100392.59;;;19.17;51.92
73063;BME280;61230;46.328;19.972;2022-09-01T00:42:04;100398.12;;;19.15;52.15
73063;BME280;61230;46.328;19.972;2022-09-01T00:44:32;100392.13;;;19.07;52.35
73063;BME280;61230;46.328;19.972;2022-09-01T00:47:00;100400.13;;;19.07;52.49
73063;BME280;61230;46.328;19.972;2022-09-01T00:49:33;100400.13;;;19.07;52.45
73063;BME280;61230;46.328;19.972;2022-09-01T00:52:07;100392.94;;;19.07;52.54
73063;BME280;61230;46.328;19.972;2022-09-01T00:54:39;100389.66;;;19.05;52.71
73063;BME280;61230;46.328;19.972;2022-09-01T00:57:09;100384.31;;;19.05;52.72
73063;BME280;61230;46.328;19.972;2022-09-01T00:59:45;100373.41;;;19.00;52.89
73063;BME280;61230;46.328;19.972;2022-09-01T01:02:16;100371.97;;;18.98;53.07
73063;BME280;61230;46.328;19.972;2022-09-01T01:04:44;100372.97;;;18.97;53.17
73063;BME280;61230;46.328;19.972;2022-09-01T01:07:13;100376.03;;;18.93;53.35
73063;BME280;61230;46.328;19.972;2022-09-01T01:09:43;100375.19;;;18.93;53.36
73063;BME280;61230;46.328;19.972;2022-09-01T01:12:12;100376.41;;;18.90;53.44
73063;BME280;61230;46.328;19.972;2022-09-01T01:14:48;100371.91;;;18.91;53.45
73063;BME280;61230;46.328;19.972;2022-09-01T01:17:20;100371.09;;;18.90;53.71
73063;BME280;61230;46.328;19.972;2022-09-01T01:19:53;100373.97;;;18.89;53.69
73063;BME280;61230;46.328;19.972;2022-09-01T01:30:56;100386.41;;;18.82;54.31
73063;BME280;61230;46.328;19.972;2022-09-01T01:33:40;100386.19;;;18.77;54.36
73063;BME280;61230;46.328;19.972;2022-09-01T01:38:47;100395.25;;;18.82;54.54
73063;BME280;61230;46.328;19.972;2022-09-01T01:41:16;100395.63;;;18.79;54.57
73063;BME280;61230;46.328;19.972;2022-09-01T01:43:46;100392.94;;;18.73;54.74
73063;BME280;61230;46.328;19.972;2022-09-01T01:46:17;100391.72;;;18.75;54.73
73063;BME280;61230;46.328;19.972;2022-09-01T01:48:47;100394.38;;;18.75;54.60
73063;BME280;61230;46.328;19.972;2022-09-01T01:51:17;100395.22;;;18.76;54.55
73063;BME280;61230;46.328;19.972;2022-09-01T01:53:47;100397.06;;;18.75;54.55
73063;BME280;61230;46.328;19.972;2022-09-01T01:56:20;100403.37;;;18.74;54.41
73063;BME280;61230;46.328;19.972;2022-09-01T01:58:53;100405.06;;;18.82;54.31
73063;BME280;61230;46.328;19.972;2022-09-01T02:01:24;100403.84;;;18.78;54.22
73063;BME280;61230;46.328;19.972;2022-09-01T02:03:55;100427.09;;;18.90;54.83
73063;BME280;61230;46.328;19.972;2022-09-01T02:06:27;100435.59;;;19.01;56.71
73063;BME280;61230;46.328;19.972;2022-09-01T02:08:56;100453.09;;;19.10;55.28
73063;BME280;61230;46.328;19.972;2022-09-01T02:11:24;100457.59;;;18.81;54.92
73063;BME280;61230;46.328;19.972;2022-09-01T02:13:53;100482.75;;;19.00;54.97
73063;BME280;61230;46.328;19.972;2022-09-01T02:16:29;100503.88;;;19.02;55.54
73063;BME280;61230;46.328;19.972;2022-09-01T02:19:00;100510.25;;;19.01;55.73
73063;BME280;61230;46.328;19.972;2022-09-01T02:21:28;100518.41;;;18.92;55.69
73063;BME280;61230;46.328;19.972;2022-09-01T02:23:58;100514.84;;;18.85;57.34
73063;BME280;61230;46.328;19.972;2022-09-01T02:26:35;100513.66;;;18.67;59.95
73063;BME280;61230;46.328;19.972;2022-09-01T02:29:07;100515.09;;;18.48;60.39
73063;BME280;61230;46.328;19.972;2022-09-01T02:31:37;100515.22;;;18.25;62.40
73063;BME280;61230;46.328;19.972;2022-09-01T02:34:08;100527.31;;;18.07;63.92
73063;BME280;61230;46.328;19.972;2022-09-01T02:36:43;100514.56;;;17.88;67.31
73063;BME280;61230;46.328;19.972;2022-09-01T02:39:16;100513.84;;;17.64;70.01
73063;BME280;61230;46.328;19.972;2022-09-01T02:41:45;100496.12;;;16.90;74.07
73063;BME280;61230;46.328;19.972;2022-09-01T02:44:13;100478.72;;;16.65;75.62
73063;BME280;61230;46.328;19.972;2022-09-01T02:46:42;100472.31;;;16.59;74.31
73063;BME280;61230;46.328;19.972;2022-09-01T02:49:14;100471.37;;;16.44;75.59
73063;BME280;61230;46.328;19.972;2022-09-01T02:51:47;100468.91;;;16.43;75.44
73063;BME280;61230;46.328;19.972;2022-09-01T02:54:15;100458.16;;;16.36;76.20
73063;BME280;61230;46.328;19.972;2022-09-01T02:56:44;100463.63;;;16.35;75.95
73063;BME280;61230;46.328;19.972;2022-09-01T02:59:16;100449.34;;;16.13;78.86
73063;BME280;61230;46.328;19.972;2022-09-01T03:01:44;100441.19;;;15.92;79.78
73063;BME280;61230;46.328;19.972;2022-09-01T03:04:13;100435.56;;;15.87;79.90
73063;BME280;61230;46.328;19.972;2022-09-01T03:06:41;100432.59;;;15.82;80.23
73063;BME280;61230;46.328;19.972;2022-09-01T03:09:15;100429.66;;;15.77;81.04
73063;BME280;61230;46.328;19.972;2022-09-01T03:11:47;100425.69;;;15.73;80.19
73063;BME280;61230;46.328;19.972;2022-09-01T03:14:15;100416.81;;;15.58;82.15
73063;BME280;61230;46.328;19.972;2022-09-01T03:16:43;100413.37;;;15.49;82.29
73063;BME280;61230;46.328;19.972;2022-09-01T03:19:12;100427.81;;;15.30;85.06
73063;BME280;61230;46.328;19.972;2022-09-01T03:21:43;100423.53;;;15.21;86.93
73063;BME280;61230;46.328;19.972;2022-09-01T03:24:12;100425.56;;;15.11;88.63
73063;BME280;61230;46.328;19.972;2022-09-01T03:26:45;100447.09;;;15.08;89.86
73063;BME280;61230;46.328;19.972;2022-09-01T03:29:17;100441.66;;;14.93;90.40
73063;BME280;61230;46.328;19.972;2022-09-01T03:31:45;100456.06;;;14.91;90.55
73063;BME280;61230;46.328;19.972;2022-09-01T03:34:13;100450.47;;;14.86;91.60
73063;BME280;61230;46.328;19.972;2022-09-01T03:36:43;100451.13;;;14.80;91.73
73063;BME280;61230;46.328;19.972;2022-09-01T03:39:18;100449.12;;;14.74;92.51
73063;BME280;61230;46.328;19.972;2022-09-01T03:41:46;100448.47;;;14.72;94.20
73063;BME280;61230;46.328;19.972;2022-09-01T03:44:14;100458.88;;;14.81;94.49
73063;BME280;61230;46.328;19.972;2022-09-01T03:46:43;100473.28;;;14.79;92.94
73063;BME280;61230;46.328;19.972;2022-09-01T03:49:11;100483.56;;;14.98;92.03
73063;BME280;61230;46.328;19.972;2022-09-01T03:51:42;100490.84;;;14.88;91.42
73063;BME280;61230;46.328;19.972;2022-09-01T03:54:12;100500.12;;;14.92;90.75
73063;BME280;61230;46.328;19.972;2022-09-01T03:56:40;100509.41;;;14.80;92.41
73063;BME280;61230;46.328;19.972;2022-09-01T03:59:10;100509.41;;;14.88;91.48
73063;BME280;61230;46.328;19.972;2022-09-01T04:01:44;100500.63;;;14.47;93.36
73063;BME280;61230;46.328;19.972;2022-09-01T04:04:14;100489.34;;;14.37;94.83
73063;BME280;61230;46.328;19.972;2022-09-01T04:06:43;100489.28;;;14.29;95.30
73063;BME280;61230;46.328;19.972;2022-09-01T04:09:12;100490.91;;;14.22;94.59
73063;BME280;61230;46.328;19.972;2022-09-01T04:11:41;100490.25;;;14.12;95.54
73063;BME280;61230;46.328;19.972;2022-09-01T04:14:13;100496.03;;;14.07;97.07
73063;BME280;61230;46.328;19.972;2022-09-01T04:16:42;100502.94;;;14.00;95.44
73063;BME280;61230;46.328;19.972;2022-09-01T04:19:33;100501.28;;;13.99;95.88
73063;BME280;61230;46.328;19.972;2022-09-01T04:22:04;100499.13;;;13.95;96.57
73063;BME280;61230;46.328;19.972;2022-09-01T04:24:32;100478.44;;;13.82;96.01
73063;BME280;61230;46.328;19.972;2022-09-01T04:27:01;100479.25;;;13.91;96.67
73063;BME280;61230;46.328;19.972;2022-09-01T04:29:30;100477.44;;;13.83;96.45
73063;BME280;61230;46.328;19.972;2022-09-01T04:32:02;100469.84;;;13.88;95.69
73063;BME280;61230;46.328;19.972;2022-09-01T04:34:34;100470.66;;;13.89;95.44
73063;BME280;61230;46.328;19.972;2022-09-01T04:37:16;100467.19;;;13.88;95.82
73063;BME280;61230;46.328;19.972;2022-09-01T04:39:50;100457.63;;;13.87;94.22
73063;BME280;61230;46.328;19.972;2022-09-01T04:42:26;100450.00;;;13.84;94.83
73063;BME280;61230;46.328;19.972;2022-09-01T04:44:57;100448.66;;;13.80;95.48
73063;BME280;61230;46.328;19.972;2022-09-01T04:47:37;100448.34;;;13.83;94.64
73063;BME280;61230;46.328;19.972;2022-09-01T04:50:09;100461.88;;;13.80;94.95
73063;BME280;61230;46.328;19.972;2022-09-01T04:52:43;100471.16;;;13.84;94.95
73063;BME280;61230;46.328;19.972;2022-09-01T04:55:14;100485.88;;;13.87;95.17
73063;BME280;61230;46.328;19.972;2022-09-01T04:57:46;100488.34;;;13.88;95.89
73063;BME280;61230;46.328;19.972;2022-09-01T05:00:19;100489.66;;;13.84;95.24
73063;BME280;61230;46.328;19.972;2022-09-01T05:02:54;100513.19;;;13.95;94.76
73063;BME280;61230;46.328;19.972;2022-09-01T05:05:24;100520.16;;;14.04;93.79
73063;BME280;61230;46.328;19.972;2022-09-01T05:07:52;100527.06;;;13.97;92.61
73063;BME280;61230;46.328;19.972;2022-09-01T05:10:22;100536.06;;;14.12;94.99
73063;BME280;61230;46.328;19.972;2022-09-01T05:12:56;100523.78;;;13.95;92.83
73063;BME280;61230;46.328;19.972;2022-09-01T05:15:24;100525.28;;;14.06;92.76
73063;BME280;61230;46.328;19.972;2022-09-01T05:17:51;100514.87;;;14.04;92.37
73063;BME280;61230;46.328;19.972;2022-09-01T05:20:25;100497.47;;;13.94;93.90
73063;BME280;61230;46.328;19.972;2022-09-01T05:22:56;100487.84;;;13.85;92.57
73063;BME280;61230;46.328;19.972;2022-09-01T05:25:24;100485.44;;;14.07;92.74
73063;BME280;61230;46.328;19.972;2022-09-01T05:27:54;100466.53;;;13.94;93.06
73063;BME280;61230;46.328;19.972;2022-09-01T05:30:23;100459.78;;;14.08;93.43
73063;BME280;61230;46.328;19.972;2022-09-01T05:32:55;100454.50;;;14.00;92.89
73063;BME280;61230;46.328;19.972;2022-09-01T05:35:23;100461.75;;;13.90;93.92
73063;BME280;61230;46.328;19.972;2022-09-01T05:37:59;100458.16;;;13.99;93.15
73063;BME280;61230;46.328;19.972;2022-09-01T05:40:27;100463.28;;;14.08;92.13
73063;BME280;61230;46.328;19.972;2022-09-01T05:42:55;100466.63;;;14.18;92.91
73063;BME280;61230;46.328;19.972;2022-09-01T05:45:25;100471.50;;;13.97;93.26
73063;BME280;61230;46.328;19.972;2022-09-01T05:47:53;100468.56;;;14.00;93.52
73063;BME280;61230;46.328;19.972;2022-09-01T05:50:21;100466.50;;;13.78;94.44
73063;BME280;61230;46.328;19.972;2022-09-01T05:52:49;100464.34;;;13.73;94.24
73063;BME280;61230;46.328;19.972;2022-09-01T05:55:17;100455.91;;;13.70;95.51
73063;BME280;61230;46.328;19.972;2022-09-01T05:57:46;100455.41;;;13.74;95.14
73063;BME280;61230;46.328;19.972;2022-09-01T06:00:16;100438.16;;;13.62;95.99
73063;BME280;61230;46.328;19.972;2022-09-01T06:02:45;100444.59;;;13.60;95.96
73063;BME280;61230;46.328;19.972;2022-09-01T06:05:14;100442.34;;;13.65;95.93
73063;BME280;61230;46.328;19.972;2022-09-01T06:07:42;100445.47;;;13.68;95.70
73063;BME280;61230;46.328;19.972;2022-09-01T06:10:12;100449.78;;;13.69;96.06
73063;BME280;61230;46.328;19.972;2022-09-01T06:12:42;100453.63;;;13.83;93.18
73063;BME280;61230;46.328;19.972;2022-09-01T06:15:15;100452.09;;;13.72;94.26
73063;BME280;61230;46.328;19.972;2022-09-01T06:17:45;100464.34;;;13.73;94.71
73063;BME280;61230;46.328;19.972;2022-09-01T06:20:13;100463.38;;;13.82;94.89
73063;BME280;61230;46.328;19.972;2022-09-01T06:22:44;100465.53;;;13.79;93.94
73063;BME280;61230;46.328;19.972;2022-09-01T06:25:16;100465.06;;;13.92;93.53
73063;BME280;61230;46.328;19.972;2022-09-01T06:27:46;100465.38;;;13.89;94.54
73063;BME280;61230;46.328;19.972;2022-09-01T06:30:16;100469.53;;;13.99;93.12
73063;BME280;61230;46.328;19.972;2022-09-01T06:32:52;100467.56;;;14.01;94.01
73063;BME280;61230;46.328;19.972;2022-09-01T06:35:21;100472.03;;;14.01;93.21
73063;BME280;61230;46.328;19.972;2022-09-01T06:37:51;100466.94;;;14.07;93.54
73063;BME280;61230;46.328;19.972;2022-09-01T06:40:20;100475.19;;;14.04;94.13
73063;BME280;61230;46.328;19.972;2022-09-01T06:42:49;100469.91;;;14.12;93.19
73063;BME280;61230;46.328;19.972;2022-09-01T06:45:21;100471.91;;;14.18;93.69
73063;BME280;61230;46.328;19.972;2022-09-01T06:47:50;100473.88;;;14.16;93.56
73063;BME280;61230;46.328;19.972;2022-09-01T06:50:26;100469.91;;;14.12;94.10
73063;BME280;61230;46.328;19.972;2022-09-01T06:53:14;100469.59;;;14.15;93.41
73063;BME280;61230;46.328;19.972;2022-09-01T06:56:06;100473.72;;;14.18;93.48
73063;BME280;61230;46.328;19.972;2022-09-01T06:58:36;100476.38;;;14.18;93.98
73063;BME280;61230;46.328;19.972;2022-09-01T07:01:08;100484.31;;;14.18;93.35
73063;BME280;61230;46.328;19.972;2022-09-01T07:03:43;100498.53;;;14.25;94.26
73063;BME280;61230;46.328;19.972;2022-09-01T07:06:13;100502.75;;;14.35;94.54
73063;BME280;61230;46.328;19.972;2022-09-01T07:09:03;100500.09;;;14.35;95.10
73063;BME280;61230;46.328;19.972;2022-09-01T07:11:54;100502.25;;;14.40;93.90
73063;BME280;61230;46.328;19.972;2022-09-01T07:14:43;100500.63;;;14.55;95.57
73063;BME280;61230;46.328;19.972;2022-09-01T07:17:31;100508.56;;;14.55;96.09
73063;BME280;61230;46.328;19.972;2022-09-01T07:19:59;100508.06;;;14.44;93.54
73063;BME280;61230;46.328;19.972;2022-09-01T07:22:47;100505.41;;;14.52;94.33
73063;BME280;61230;46.328;19.972;2022-09-01T07:25:36;100488.22;;;14.56;94.73
73063;BME280;61230;46.328;19.972;2022-09-01T07:28:26;100507.72;;;14.71;93.84
73063;BME280;61230;46.328;19.972;2022-09-01T07:31:04;100504.75;;;14.66;94.99
73063;BME280;61230;46.328;19.972;2022-09-01T07:33:57;100492.50;;;14.65;93.83
73063;BME280;61230;46.328;19.972;2022-09-01T07:36:45;100494.00;;;14.75;94.18
73063;BME280;61230;46.328;19.972;2022-09-01T07:39:33;100501.97;;;14.83;93.61
73063;BME280;61230;46.328;19.972;2022-09-01T07:42:20;100489.84;;;14.65;93.51
73063;BME280;61230;46.328;19.972;2022-09-01T07:45:15;100492.50;;;14.65;94.07
73063;BME280;61230;46.328;19.972;2022-09-01T07:47:59;100489.19;;;14.79;95.08
73063;BME280;61230;46.328;19.972;2022-09-01T07:50:33;100482.56;;;14.83;94.00
73063;BME280;61230;46.328;19.972;2022-09-01T07:53:34;100481.25;;;14.79;95.25
73063;BME280;61230;46.328;19.972;2022-09-01T07:56:08;100472.31;;;14.88;95.28
73063;BME280;61230;46.328;19.972;2022-09-01T07:58:38;100478.94;;;14.92;95.39
73063;BME280;61230;46.328;19.972;2022-09-01T08:01:08;100481.41;;;15.10;94.69
73063;BME280;61230;46.328;19.972;2022-09-01T08:03:37;100486.16;;;15.22;94.24
73063;BME280;61230;46.328;19.972;2022-09-01T08:06:09;100490.66;;;15.14;93.61
73063;BME280;61230;46.328;19.972;2022-09-01T08:08:38;100484.87;;;15.18;92.41
73063;BME280;61230;46.328;19.972;2022-09-01T08:11:07;100490.16;;;15.18;91.67
73063;BME280;61230;46.328;19.972;2022-09-01T08:13:36;100483.38;;;15.24;91.06
73063;BME280;61230;46.328;19.972;2022-09-01T08:16:09;100491.66;;;15.21;90.68
73063;BME280;61230;46.328;19.972;2022-09-01T08:18:46;100487.78;;;15.39;89.51
73063;BME280;61230;46.328;19.972;2022-09-01T08:21:20;100500.03;;;15.57;90.62
73063;BME280;61230;46.328;19.972;2022-09-01T08:23:54;100497.91;;;15.52;89.58
73063;BME280;61230;46.328;19.972;2022-09-01T08:26:25;100495.41;;;15.50;89.90
73063;BME280;61230;46.328;19.972;2022-09-01T08:28:53;100485.97;;;15.48;89.08
73063;BME280;61230;46.328;19.972;2022-09-01T08:31:24;100498.53;;;15.62;87.73
73063;BME280;61230;46.328;19.972;2022-09-01T08:33:58;100500.16;;;15.71;89.16
73063;BME280;61230;46.328;19.972;2022-09-01T08:36:27;100492.81;;;15.81;88.97
73063;BME280;61230;46.328;19.972;2022-09-01T08:38:54;100503.06;;;15.84;87.92
73063;BME280;61230;46.328;19.972;2022-09-01T08:41:31;100498.22;;;15.96;87.72
73063;BME280;61230;46.328;19.972;2022-09-01T08:46:53;100509.09;;;16.40;86.70
73063;BME280;61230;46.328;19.972;2022-09-01T08:49:25;100507.50;;;16.31;84.45
73063;BME280;61230;46.328;19.972;2022-09-01T08:55:23;100511.72;;;16.71;86.50
73063;BME280;61230;46.328;19.972;2022-09-01T08:57:55;100511.13;;;16.60;82.58
73063;BME280;61230;46.328;19.972;2022-09-01T09:00:32;100513.50;;;16.55;83.92
73063;BME280;61230;46.328;19.972;2022-09-01T09:06:04;100510.34;;;16.75;81.35
73063;BME280;61230;46.328;19.972;2022-09-01T09:11:40;100519.56;;;16.87;79.69
73063;BME280;61230;46.328;19.972;2022-09-01T09:17:09;100511.87;;;16.92;79.25
73063;BME280;61230;46.328;19.972;2022-09-01T09:19:40;100518.44;;;17.04;78.74
73063;BME280;61230;46.328;19.972;2022-09-01T09:22:11;100520.66;;;17.15;78.12
73063;BME280;61230;46.328;19.972;2022-09-01T09:24:50;100525.28;;;17.36;78.69
73063;BME280;61230;46.328;19.972;2022-09-01T09:27:29;100530.34;;;17.45;76.55
73063;BME280;61230;46.328;19.972;2022-09-01T09:29:58;100535.56;;;17.39;75.43
73063;BME280;61230;46.328;19.972;2022-09-01T09:35:44;100545.13;;;17.62;74.32
73063;BME280;61230;46.328;19.972;2022-09-01T09:44:12;100540.19;;;17.59;72.77
73063;BME280;61230;46.328;19.972;2022-09-01T09:46:44;100542.03;;;17.73;71.97
73063;BME280;61230;46.328;19.972;2022-09-01T09:49:23;100537.59;;;17.66;71.21
73063;BME280;61230;46.328;19.972;2022-09-01T09:54:40;100542.06;;;18.24;73.16
73063;BME280;61230;46.328;19.972;2022-09-01T09:57:24;100531.56;;;18.22;70.99
73063;BME280;61230;46.328;19.972;2022-09-01T10:03:42;100537.44;;;18.32;71.19
73063;BME280;61230;46.328;19.972;2022-09-01T10:06:15;100532.37;;;18.37;70.31
73063;BME280;61230;46.328;19.972;2022-09-01T10:08:57;100530.28;;;18.33;70.13
73063;BME280;61230;46.328;19.972;2022-09-01T10:11:30;100513.97;;;18.21;69.93
73063;BME280;61230;46.328;19.972;2022-09-01T10:14:37;100539.53;;;18.37;69.81
73063;BME280;61230;46.328;19.972;2022-09-01T10:20:06;100537.94;;;18.21;68.58
73063;BME280;61230;46.328;19.972;2022-09-01T10:22:39;100540.28;;;18.31;68.80
73063;BME280;61230;46.328;19.972;2022-09-01T10:25:21;100534.94;;;18.31;68.59
73063;BME280;61230;46.328;19.972;2022-09-01T10:27:53;100530.09;;;18.34;67.79
73063;BME280;61230;46.328;19.972;2022-09-01T10:30:26;100540.88;;;18.48;68.03
73063;BME280;61230;46.328;19.972;2022-09-01T10:32:59;100519.66;;;18.54;68.06
73063;BME280;61230;46.328;19.972;2022-09-01T10:35:44;100528.69;;;18.96;69.41
73063;BME280;61230;46.328;19.972;2022-09-01T10:38:16;100528.41;;;18.90;68.10
73063;BME280;61230;46.328;19.972;2022-09-01T10:40:50;100529.69;;;18.73;68.51
73063;BME280;61230;46.328;19.972;2022-09-01T10:43:43;100528.16;;;18.85;68.86
73063;BME280;61230;46.328;19.972;2022-09-01T10:52:05;100525.19;;;18.74;68.10
73063;BME280;61230;46.328;19.972;2022-09-01T10:57:24;100523.09;;;18.90;67.05
73063;BME280;61230;46.328;19.972;2022-09-01T11:06:06;100510.09;;;18.81;66.65
73063;BME280;61230;46.328;19.972;2022-09-01T11:08:41;100507.66;;;18.86;66.71
73063;BME280;61230;46.328;19.972;2022-09-01T11:11:45;100511.28;;;19.00;66.31
73063;BME280;61230;46.328;19.972;2022-09-01T11:14:18;100501.22;;;19.02;66.27
73063;BME280;61230;46.328;19.972;2022-09-01T11:17:15;100512.09;;;19.28;66.74
73063;BME280;61230;46.328;19.972;2022-09-01T11:23:11;100506.09;;;19.19;64.49
73063;BME280;61230;46.328;19.972;2022-09-01T11:26:00;100510.56;;;19.12;64.25
73063;BME280;61230;46.328;19.972;2022-09-01T11:28:46;100511.97;;;19.64;65.06
73063;BME280;61230;46.328;19.972;2022-09-01T11:31:19;100515.91;;;19.40;62.62
73063;BME280;61230;46.328;19.972;2022-09-01T11:34:11;100520.50;;;19.52;64.37
73063;BME280;61230;46.328;19.972;2022-09-01T11:44:51;100527.75;;;19.99;66.54
73063;BME280;61230;46.328;19.972;2022-09-01T11:47:35;100534.22;;;19.77;63.62
73063;BME280;61230;46.328;19.972;2022-09-01T11:50:07;100533.03;;;19.52;64.56
73063;BME280;61230;46.328;19.972;2022-09-01T11:52:55;100539.28;;;19.38;65.74
73063;BME280;61230;46.328;19.972;2022-09-01T11:55:34;100528.03;;;19.15;64.42
73063;BME280;61230;46.328;19.972;2022-09-01T11:58:03;100531.63;;;19.56;64.31
73063;BME280;61230;46.328;19.972;2022-09-01T12:00:36;100530.59;;;19.29;65.05
73063;BME280;61230;46.328;19.972;2022-09-01T12:03:24;100528.72;;;19.02;63.38
73063;BME280;61230;46.328;19.972;2022-09-01T12:05:55;100530.09;;;19.19;63.95
73063;BME280;61230;46.328;19.972;2022-09-01T12:08:31;100533.22;;;19.23;62.88
73063;BME280;61230;46.328;19.972;2022-09-01T12:11:11;100532.31;;;19.16;62.57
73063;BME280;61230;46.328;19.972;2022-09-01T12:13:40;100522.19;;;19.05;62.28
73063;BME280;61230;46.328;19.972;2022-09-01T12:16:20;100525.91;;;19.10;62.82
73063;BME280;61230;46.328;19.972;2022-09-01T12:18:51;100526.97;;;19.16;63.03
73063;BME280;61230;46.328;19.972;2022-09-01T12:21:31;100518.81;;;19.17;63.81
73063;BME280;61230;46.328;19.972;2022-09-01T12:26:46;100522.09;;;19.47;63.54
73063;BME280;61230;46.328;19.972;2022-09-01T12:29:15;100521.25;;;19.40;62.38
73063;BME280;61230;46.328;19.972;2022-09-01T12:31:46;100526.00;;;19.44;61.83
73063;BME280;61230;46.328;19.972;2022-09-01T12:39:48;100530.31;;;19.45;61.70
73063;BME280;61230;46.328;19.972;2022-09-01T12:44:52;100522.53;;;19.44;61.76
73063;BME280;61230;46.328;19.972;2022-09-01T12:50:05;100519.31;;;19.62;62.29
73063;BME280;61230;46.328;19.972;2022-09-01T12:52:35;100519.16;;;19.63;61.75
73063;BME280;61230;46.328;19.972;2022-09-01T12:55:18;100503.03;;;19.50;61.33
73063;BME280;61230;46.328;19.972;2022-09-01T12:58:08;100516.88;;;19.60;61.82
73063;BME280;61230;46.328;19.972;2022-09-01T13:00:54;100517.72;;;19.67;61.64
73063;BME280;61230;46.328;19.972;2022-09-01T13:03:22;100511.69;;;19.52;62.44
73063;BME280;61230;46.328;19.972;2022-09-01T13:05:55;100512.97;;;19.63;61.72
73063;BME280;61230;46.328;19.972;2022-09-01T13:08:29;100510.53;;;19.68;61.88
73063;BME280;61230;46.328;19.972;2022-09-01T13:11:04;100515.03;;;19.61;62.50
73063;BME280;61230;46.328;19.972;2022-09-01T13:13:32;100514.59;;;19.57;62.10
73063;BME280;61230;46.328;19.972;2022-09-01T13:16:03;100516.88;;;19.60;62.65
73063;BME280;61230;46.328;19.972;2022-09-01T13:18:41;100517.88;;;19.59;62.30
73063;BME280;61230;46.328;19.972;2022-09-01T13:21:30;100512.34;;;19.61;62.36
73063;BME280;61230;46.328;19.972;2022-09-01T13:23:58;100514.87;;;19.75;62.58
73063;BME280;61230;46.328;19.972;2022-09-01T13:26:25;100515.44;;;19.64;61.01
73063;BME280;61230;46.328;19.972;2022-09-01T13:28:54;100521.66;;;19.71;63.19
73063;BME280;61230;46.328;19.972;2022-09-01T13:31:21;100518.91;;;19.58;61.56
73063;BME280;61230;46.328;19.972;2022-09-01T13:33:58;100519.31;;;19.62;62.52
73063;BME280;61230;46.328;19.972;2022-09-01T13:36:46;100532.50;;;19.63;61.34
73063;BME280;61230;46.328;19.972;2022-09-01T13:39:19;100526.94;;;19.58;62.22
73063;BME280;61230;46.328;19.972;2022-09-01T13:41:49;100527.16;;;19.63;62.88
73063;BME280;61230;46.328;19.972;2022-09-01T13:44:17;100532.88;;;19.60;60.01
73063;BME280;61230;46.328;19.972;2022-09-01T13:46:45;100518.47;;;19.55;60.93
73063;BME280;61230;46.328;19.972;2022-09-01T13:49:33;100528.00;;;19.64;61.17
73063;BME280;61230;46.328;19.972;2022-09-01T13:52:21;100530.38;;;19.52;61.64
73063;BME280;61230;46.328;19.972;2022-09-01T13:54:49;100533.06;;;19.59;62.43
73063;BME280;61230;46.328;19.972;2022-09-01T13:57:16;100533.94;;;19.66;61.40
73063;BME280;61230;46.328;19.972;2022-09-01T13:59:44;100530.00;;;19.55;60.92
73063;BME280;61230;46.328;19.972;2022-09-01T14:02:11;100538.56;;;19.50;61.37
73063;BME280;61230;46.328;19.972;2022-09-01T14:04:39;100532.00;;;19.53;63.99
73063;BME280;61230;46.328;19.972;2022-09-01T14:08:42;100533.28;;;19.98;59.49
73063;BME280;61230;46.328;19.972;2022-09-01T14:11:16;100533.28;;;19.98;59.49
73063;BME280;61230;46.328;19.972;2022-09-01T14:13:44;100548.94;;;19.39;61.30
73063;BME280;61230;46.328;19.972;2022-09-01T14:16:13;100542.97;;;19.37;60.62
73063;BME280;61230;46.328;19.972;2022-09-01T14:18:41;100543.62;;;19.39;61.15
73063;BME280;61230;46.328;19.972;2022-09-01T14:21:11;100541.78;;;19.39;61.88
73063;BME280;61230;46.328;19.972;2022-09-01T14:23:41;100540.12;;;19.38;60.49
73063;BME280;61230;46.328;19.972;2022-09-01T14:26:10;100538.09;;;19.40;61.29
73063;BME280;61230;46.328;19.972;2022-09-01T14:28:39;100537.25;;;19.40;61.06
73063;BME280;61230;46.328;19.972;2022-09-01T14:31:08;100543.22;;;19.42;59.84
73063;BME280;61230;46.328;19.972;2022-09-01T14:33:38;100535.03;;;19.43;60.26
73063;BME280;61230;46.328;19.972;2022-09-01T14:36:06;100542.00;;;19.44;61.10